createdAt,value
2018-08-16T00:00:27.065Z,0.00
2018-08-16T00:01:27.039Z,0.00
2018-08-16T00:02:27.039Z,0.00
2018-08-16T00:03:27.030Z,0.00
2018-08-16T00:04:27.028Z,0.00
2018-08-16T00:05:27.028Z,0.00
2018-08-16T00:06:27.031Z,0.00
2018-08-16T00:07:27.024Z,0.00
2018-08-16T00:08:27.025Z,0.00
2018-08-16T00:09:27.015Z,0.00
2018-08-16T00:10:27.003Z,0.00
2018-08-16T00:11:27.004Z,0.00
2018-08-16T00:12:27.009Z,0.00
2018-08-16T00:13:27.009Z,0.00
2018-08-16T00:14:27.006Z,0.00
2018-08-16T00:15:27.004Z,0.00
2018-08-16T00:16:26.990Z,0.00
2018-08-16T00:17:27.001Z,0.00
2018-08-16T00:18:26.997Z,0.00
2018-08-16T00:19:26.994Z,0.00
2018-08-16T00:20:26.983Z,0.00
2018-08-16T00:21:26.993Z,0.00
2018-08-16T00:22:26.984Z,0.00
2018-08-16T00:23:26.971Z,0.00
2018-08-16T00:24:26.973Z,0.00
2018-08-16T00:25:26.972Z,0.00
2018-08-16T00:26:26.981Z,0.00
2018-08-16T00:27:26.966Z,0.00
2018-08-16T00:28:26.966Z,0.00
2018-08-16T00:29:26.962Z,0.00
2018-08-16T00:30:26.955Z,0.00
2018-08-16T00:31:26.956Z,0.00
2018-08-16T00:32:26.953Z,0.00
2018-08-16T00:33:26.955Z,0.00
2018-08-16T00:34:26.934Z,0.00
2018-08-16T00:35:26.942Z,0.00
2018-08-16T00:36:26.947Z,0.00
2018-08-16T00:37:26.932Z,0.00
2018-08-16T00:38:26.969Z,0.00
2018-08-16T00:39:26.935Z,0.00
2018-08-16T00:40:26.927Z,0.00
2018-08-16T00:41:26.928Z,0.00
2018-08-16T00:42:26.917Z,0.00
2018-08-16T00:43:26.916Z,0.00
2018-08-16T00:44:26.920Z,0.00
2018-08-16T00:45:26.919Z,0.00
2018-08-16T00:46:26.916Z,0.00
2018-08-16T00:47:26.913Z,0.00
2018-08-16T00:48:27.019Z,0.00
2018-08-16T00:49:26.915Z,0.00
2018-08-16T00:50:26.903Z,0.00
2018-08-16T00:51:26.900Z,0.00
2018-08-16T00:52:26.885Z,0.00
2018-08-16T00:53:26.883Z,0.00
2018-08-16T00:54:26.896Z,0.00
2018-08-16T00:55:26.878Z,0.00
2018-08-16T00:56:26.877Z,0.00
2018-08-16T00:57:26.881Z,0.00
2018-08-16T00:58:26.880Z,0.00
2018-08-16T00:59:26.875Z,0.00
2018-08-16T01:00:26.874Z,0.00
2018-08-16T01:01:26.943Z,0.00
2018-08-16T01:02:26.948Z,0.00
2018-08-16T01:03:26.858Z,0.00
2018-08-16T01:04:26.865Z,0.00
2018-08-16T01:05:26.859Z,0.00
2018-08-16T01:06:26.858Z,0.00
2018-08-16T01:07:26.842Z,0.00
2018-08-16T01:08:26.852Z,0.00
2018-08-16T01:09:26.838Z,0.00
2018-08-16T01:10:26.844Z,0.00
2018-08-16T01:11:26.851Z,0.00
2018-08-16T01:12:26.839Z,0.00
2018-08-16T01:13:26.829Z,0.00
2018-08-16T01:14:26.832Z,0.00
2018-08-16T01:15:26.820Z,0.00
2018-08-16T01:16:26.820Z,0.00
2018-08-16T01:17:26.819Z,0.00
2018-08-16T01:18:26.819Z,0.00
2018-08-16T01:19:26.824Z,0.00
2018-08-16T01:20:26.811Z,0.00
2018-08-16T01:21:26.814Z,0.00
2018-08-16T01:22:26.797Z,0.00
2018-08-16T01:23:26.804Z,0.00
2018-08-16T01:24:26.795Z,0.00
2018-08-16T01:25:26.788Z,0.00
2018-08-16T01:26:26.796Z,0.00
2018-08-16T01:27:26.795Z,0.00
2018-08-16T01:28:26.793Z,0.00
2018-08-16T01:29:26.780Z,0.00
2018-08-16T01:30:26.772Z,0.00
2018-08-16T02:04:57.994Z,0.00
2018-08-16T02:05:57.961Z,0.00
2018-08-16T02:06:57.948Z,0.00
2018-08-16T02:07:57.936Z,0.00
2018-08-16T02:08:57.931Z,0.00
2018-08-16T02:09:57.925Z,0.00
2018-08-16T02:10:57.923Z,0.00
2018-08-16T02:11:57.922Z,0.00
2018-08-16T02:12:57.911Z,0.00
2018-08-16T02:13:57.915Z,0.00
2018-08-16T02:14:57.895Z,0.00
2018-08-16T02:15:57.891Z,0.00
2018-08-16T02:16:57.888Z,0.00
2018-08-16T02:17:57.888Z,0.00
2018-08-16T02:18:57.884Z,0.00
2018-08-16T02:19:57.893Z,0.00
2018-08-16T02:20:57.872Z,0.00
2018-08-16T02:21:57.870Z,0.00
2018-08-16T02:22:57.852Z,0.00
2018-08-16T02:23:57.862Z,0.00
2018-08-16T02:24:57.862Z,0.00
2018-08-16T02:25:57.855Z,0.00
2018-08-16T02:26:57.845Z,0.00
2018-08-16T02:27:57.832Z,0.00
2018-08-16T02:28:57.839Z,0.00
2018-08-16T02:29:57.845Z,0.00
2018-08-16T02:30:57.826Z,0.00
2018-08-16T02:31:57.831Z,0.00
2018-08-16T02:32:57.825Z,0.00
2018-08-16T02:33:57.821Z,0.00
2018-08-16T02:34:57.834Z,0.00
2018-08-16T02:35:57.822Z,0.00
2018-08-16T02:36:57.816Z,0.00
2018-08-16T02:37:57.812Z,0.00
2018-08-16T02:38:57.809Z,0.00
2018-08-16T02:39:57.811Z,0.00
2018-08-16T02:40:57.789Z,0.00
2018-08-16T02:41:57.798Z,0.00
2018-08-16T02:42:57.789Z,0.00
2018-08-16T02:43:57.793Z,0.00
2018-08-16T02:44:57.785Z,0.00
2018-08-16T02:45:57.790Z,0.00
2018-08-16T02:46:57.781Z,0.00
2018-08-16T02:47:57.773Z,0.00
2018-08-16T02:48:57.768Z,0.00
2018-08-16T02:49:57.777Z,0.00
2018-08-16T02:50:57.803Z,0.00
2018-08-16T02:51:57.763Z,0.00
2018-08-16T02:52:57.762Z,0.00
2018-08-16T02:53:57.761Z,0.00
2018-08-16T02:54:58.225Z,0.00
2018-08-16T02:55:57.754Z,0.00
2018-08-16T02:56:57.750Z,0.00
2018-08-16T02:57:57.748Z,0.00
2018-08-16T02:58:57.746Z,0.00
2018-08-16T02:59:57.746Z,0.00
2018-08-16T03:00:57.729Z,0.00
2018-08-16T03:01:57.742Z,0.00
2018-08-16T03:02:57.730Z,0.00
2018-08-16T03:03:57.730Z,0.00
2018-08-16T03:04:57.729Z,0.00
2018-08-16T03:05:57.747Z,0.00
2018-08-16T03:06:57.720Z,0.00
2018-08-16T03:07:57.718Z,0.00
2018-08-16T03:08:57.708Z,0.00
2018-08-16T03:09:57.710Z,0.00
2018-08-16T03:10:57.711Z,0.00
2018-08-16T03:11:57.697Z,0.00
2018-08-16T03:12:57.705Z,0.00
2018-08-16T03:13:57.696Z,0.00
2018-08-16T03:14:57.709Z,0.00
2018-08-16T03:15:57.684Z,0.00
2018-08-16T03:16:57.684Z,0.00
2018-08-16T03:17:57.679Z,0.00
2018-08-16T03:18:57.678Z,0.00
2018-08-16T03:19:57.680Z,0.00
2018-08-16T03:20:57.668Z,0.00
2018-08-16T03:21:57.668Z,0.00
2018-08-16T03:22:57.669Z,0.00
2018-08-16T03:23:57.664Z,0.00
2018-08-16T03:24:57.655Z,0.00
2018-08-16T03:25:57.654Z,0.00
2018-08-16T03:26:57.655Z,0.00
2018-08-16T03:27:57.647Z,0.00
2018-08-16T03:28:57.648Z,0.00
2018-08-16T03:29:57.643Z,0.00
2018-08-16T03:30:57.631Z,0.00
2018-08-16T03:31:57.640Z,0.00
2018-08-16T03:32:57.638Z,0.00
2018-08-16T03:33:57.631Z,0.00
2018-08-16T03:34:57.623Z,0.00
2018-08-16T03:35:57.639Z,0.00
2018-08-16T03:36:57.619Z,0.00
2018-08-16T03:37:57.610Z,0.00
2018-08-16T03:38:57.604Z,0.00
2018-08-16T03:39:57.613Z,0.00
2018-08-16T03:40:57.612Z,0.00
2018-08-16T03:41:57.605Z,0.00
2018-08-16T03:42:57.603Z,0.00
2018-08-16T03:43:57.597Z,0.00
2018-08-16T03:44:57.595Z,0.00
2018-08-16T03:45:57.584Z,0.00
2018-08-16T03:46:57.578Z,0.00
2018-08-16T03:47:57.646Z,0.00
2018-08-16T03:48:57.585Z,0.00
2018-08-16T03:49:57.577Z,0.00
2018-08-16T03:50:57.579Z,0.00
2018-08-16T03:51:57.564Z,0.00
2018-08-16T03:52:57.559Z,0.00
2018-08-16T03:53:57.555Z,0.00
2018-08-16T03:54:57.562Z,0.00
2018-08-16T03:55:57.555Z,0.00
2018-08-16T03:56:57.551Z,0.00
2018-08-16T03:57:57.548Z,0.00
2018-08-16T03:58:57.546Z,0.00
2018-08-16T03:59:57.541Z,0.00
2018-08-16T04:00:57.527Z,0.00
2018-08-16T04:01:57.540Z,0.00
2018-08-16T04:02:57.530Z,0.00
2018-08-16T04:03:57.563Z,0.00
2018-08-16T04:04:57.534Z,0.00
2018-08-16T04:05:57.524Z,0.00
2018-08-16T04:06:57.515Z,5.63
2018-08-16T04:07:57.527Z,5.63
2018-08-16T04:08:57.513Z,5.63
2018-08-16T04:09:57.524Z,5.63
2018-08-16T04:10:57.497Z,5.63
2018-08-16T04:11:57.501Z,5.63
2018-08-16T04:12:57.510Z,11.25
2018-08-16T04:13:57.495Z,11.25
2018-08-16T04:14:57.502Z,11.25
2018-08-16T04:15:57.487Z,11.25
2018-08-16T04:16:57.480Z,16.88
2018-08-16T04:17:57.470Z,16.88
2018-08-16T04:18:57.478Z,16.88
2018-08-16T04:19:57.482Z,22.50
2018-08-16T04:20:57.467Z,22.50
2018-08-16T04:21:57.458Z,22.50
2018-08-16T04:22:57.479Z,28.13
2018-08-16T04:23:57.461Z,28.13
2018-08-16T04:24:57.452Z,33.75
2018-08-16T04:25:57.460Z,33.75
2018-08-16T04:26:57.460Z,39.38
2018-08-16T04:27:57.442Z,45.00
2018-08-16T04:28:57.468Z,45.00
2018-08-16T04:29:57.441Z,50.63
2018-08-16T04:30:57.429Z,50.63
2018-08-16T04:31:57.430Z,56.25
2018-08-16T04:32:57.430Z,56.25
2018-08-16T04:33:57.430Z,61.88
2018-08-16T04:34:57.437Z,67.50
2018-08-16T04:35:57.417Z,67.50
2018-08-16T04:36:57.419Z,73.13
2018-08-16T04:37:57.432Z,78.75
2018-08-16T04:38:57.402Z,78.75
2018-08-16T04:39:57.404Z,84.38
2018-08-16T04:40:57.397Z,90.00
2018-08-16T04:41:57.470Z,90.00
2018-08-16T04:42:57.402Z,95.63
2018-08-16T04:43:57.395Z,95.63
2018-08-16T04:44:57.390Z,101.25
2018-08-16T04:45:57.390Z,106.88
2018-08-16T04:46:57.393Z,106.88
2018-08-16T04:47:57.379Z,106.88
2018-08-16T04:48:57.381Z,112.50
2018-08-16T04:49:57.373Z,118.13
2018-08-16T04:50:57.359Z,118.13
2018-08-16T04:51:57.356Z,123.75
2018-08-16T04:52:57.362Z,129.38
2018-08-16T04:53:57.357Z,135.00
2018-08-16T04:54:57.357Z,135.00
2018-08-16T04:55:57.345Z,140.63
2018-08-16T04:56:57.375Z,146.25
2018-08-16T04:57:57.347Z,151.88
2018-08-16T04:58:57.339Z,151.88
2018-08-16T04:59:57.342Z,157.50
2018-08-16T05:00:57.340Z,163.13
2018-08-16T05:01:57.332Z,168.75
2018-08-16T05:02:57.331Z,168.75
2018-08-16T05:03:57.331Z,174.38
2018-08-16T05:04:57.320Z,180.00
2018-08-16T05:05:57.323Z,185.63
2018-08-16T05:06:57.322Z,185.63
2018-08-16T05:07:57.311Z,191.25
2018-08-16T05:08:57.308Z,196.88
2018-08-16T05:09:57.308Z,202.50
2018-08-16T05:10:57.302Z,202.50
2018-08-16T05:11:57.301Z,208.13
2018-08-16T05:12:57.313Z,213.75
2018-08-16T05:13:57.290Z,219.38
2018-08-16T05:14:57.295Z,225.00
2018-08-16T05:15:57.291Z,230.63
2018-08-16T05:16:57.291Z,230.63
2018-08-16T05:17:57.289Z,236.25
2018-08-16T05:18:57.283Z,241.88
2018-08-16T05:19:57.274Z,241.88
2018-08-16T05:20:57.312Z,241.88
2018-08-16T05:21:57.277Z,247.50
2018-08-16T05:22:57.273Z,253.13
2018-08-16T05:23:57.310Z,258.75
2018-08-16T05:24:57.269Z,258.75
2018-08-16T05:25:57.275Z,264.38
2018-08-16T05:26:57.268Z,270.00
2018-08-16T05:27:57.262Z,270.00
2018-08-16T05:28:57.256Z,275.63
2018-08-16T05:29:57.265Z,281.25
2018-08-16T05:30:57.273Z,286.88
2018-08-16T05:31:57.243Z,292.50
2018-08-16T05:32:57.237Z,292.50
2018-08-16T05:33:57.243Z,298.13
2018-08-16T05:34:57.234Z,303.75
2018-08-16T05:35:57.234Z,309.38
2018-08-16T05:36:57.231Z,309.38
2018-08-16T05:37:57.231Z,315.00
2018-08-16T05:38:57.232Z,320.63
2018-08-16T05:39:57.218Z,326.25
2018-08-16T05:40:57.233Z,331.88
2018-08-16T05:41:57.213Z,331.88
2018-08-16T05:42:57.273Z,337.50
2018-08-16T05:43:57.208Z,343.13
2018-08-16T05:44:57.210Z,343.13
2018-08-16T05:45:57.201Z,348.75
2018-08-16T05:46:57.207Z,348.75
2018-08-16T05:47:57.203Z,354.38
2018-08-16T05:48:57.210Z,360.00
2018-08-16T05:49:57.201Z,365.63
2018-08-16T05:50:57.230Z,371.25
2018-08-16T05:51:57.196Z,371.25
2018-08-16T05:52:57.190Z,382.50
2018-08-16T05:53:57.198Z,382.50
2018-08-16T05:54:57.197Z,388.13
2018-08-16T05:55:57.181Z,393.75
2018-08-16T05:56:57.185Z,393.75
2018-08-16T05:57:57.192Z,405.00
2018-08-16T05:58:57.182Z,405.00
2018-08-16T05:59:57.186Z,410.63
2018-08-16T06:00:57.181Z,416.25
2018-08-16T06:01:57.175Z,416.25
2018-08-16T06:02:57.191Z,421.88
2018-08-16T06:03:57.180Z,421.88
2018-08-16T06:04:57.181Z,427.50
2018-08-16T06:05:57.169Z,433.13
2018-08-16T06:06:57.173Z,438.75
2018-08-16T06:07:57.170Z,450.00
2018-08-16T06:08:57.170Z,444.38
2018-08-16T06:09:57.166Z,450.00
2018-08-16T06:10:57.164Z,455.63
2018-08-16T06:11:57.208Z,461.25
2018-08-16T06:12:57.169Z,472.50
2018-08-16T06:13:57.175Z,472.50
2018-08-16T06:14:57.157Z,478.13
2018-08-16T06:15:57.153Z,483.75
2018-08-16T06:16:57.158Z,483.75
2018-08-16T06:17:57.170Z,483.75
2018-08-16T06:18:57.160Z,489.38
2018-08-16T06:19:57.158Z,495.00
2018-08-16T06:20:57.172Z,500.63
2018-08-16T06:21:57.159Z,506.25
2018-08-16T06:22:57.156Z,506.25
2018-08-16T06:23:57.214Z,511.88
2018-08-16T06:24:57.160Z,517.50
2018-08-16T06:25:57.175Z,523.13
2018-08-16T06:26:57.152Z,528.75
2018-08-16T06:27:57.151Z,528.75
2018-08-16T06:28:57.160Z,534.38
2018-08-16T06:29:57.161Z,540.00
2018-08-16T06:30:57.158Z,540.00
2018-08-16T06:31:57.156Z,545.63
2018-08-16T06:32:57.152Z,551.25
2018-08-16T06:33:57.152Z,551.25
2018-08-16T06:34:57.172Z,551.25
2018-08-16T06:35:57.167Z,556.88
2018-08-16T06:36:57.150Z,562.50
2018-08-16T06:37:57.153Z,568.13
2018-08-16T06:38:57.257Z,568.13
2018-08-16T06:39:57.161Z,573.75
2018-08-16T06:40:57.172Z,573.75
2018-08-16T06:41:57.153Z,579.38
2018-08-16T06:42:57.155Z,585.00
2018-08-16T06:43:57.157Z,585.00
2018-08-16T06:44:57.154Z,590.63
2018-08-16T06:45:57.172Z,590.63
2018-08-16T06:46:57.158Z,596.25
2018-08-16T06:47:57.162Z,596.25
2018-08-16T06:48:57.163Z,607.50
2018-08-16T06:49:57.162Z,601.88
2018-08-16T06:50:57.181Z,607.50
2018-08-16T06:51:57.172Z,607.50
2018-08-16T06:52:57.163Z,607.50
2018-08-16T06:53:57.158Z,613.13
2018-08-16T06:54:57.173Z,618.75
2018-08-16T06:55:57.178Z,618.75
2018-08-16T06:56:57.166Z,618.75
2018-08-16T06:57:57.174Z,618.75
2018-08-16T06:58:57.187Z,624.38
2018-08-16T06:59:57.175Z,624.38
2018-08-16T07:00:57.197Z,630.00
2018-08-16T07:01:57.175Z,624.38
2018-08-16T07:02:57.180Z,630.00
2018-08-16T07:03:57.172Z,630.00
2018-08-16T07:04:57.219Z,635.63
2018-08-16T07:05:57.180Z,635.63
2018-08-16T07:06:57.189Z,635.63
2018-08-16T07:07:57.185Z,641.25
2018-08-16T07:08:57.186Z,641.25
2018-08-16T07:09:57.189Z,646.88
2018-08-16T07:10:57.185Z,646.88
2018-08-16T07:11:57.253Z,646.88
2018-08-16T07:12:57.198Z,652.50
2018-08-16T07:13:57.185Z,652.50
2018-08-16T07:14:57.204Z,652.50
2018-08-16T07:15:57.203Z,658.13
2018-08-16T07:16:57.202Z,658.13
2018-08-16T07:17:57.206Z,669.38
2018-08-16T07:18:57.208Z,663.75
2018-08-16T07:19:57.214Z,675.00
2018-08-16T07:20:57.231Z,691.88
2018-08-16T07:21:57.217Z,720.00
2018-08-16T07:22:57.215Z,742.50
2018-08-16T07:23:57.222Z,1130.63
2018-08-16T07:24:57.212Z,2160.00
2018-08-16T07:25:57.224Z,2829.38
2018-08-16T07:26:57.219Z,2913.75
2018-08-16T07:27:57.225Z,2930.63
2018-08-16T07:28:57.233Z,2975.63
2018-08-16T07:29:57.263Z,2908.13
2018-08-16T07:30:57.234Z,2880.00
2018-08-16T07:31:57.250Z,2992.50
2018-08-16T07:32:57.255Z,3009.38
2018-08-16T07:33:57.256Z,3065.63
2018-08-16T07:34:57.270Z,3015.00
2018-08-16T07:35:57.285Z,2874.38
2018-08-16T07:36:57.281Z,3099.38
2018-08-16T07:37:57.307Z,3088.13
2018-08-16T07:38:57.297Z,2958.75
2018-08-16T07:39:57.303Z,3009.38
2018-08-16T07:40:57.320Z,2868.75
2018-08-16T07:41:57.322Z,2925.00
2018-08-16T07:42:57.328Z,2857.50
2018-08-16T07:43:57.336Z,2716.88
2018-08-16T07:44:57.355Z,2784.38
2018-08-16T07:45:57.440Z,2998.13
2018-08-16T07:46:57.388Z,2986.88
2018-08-16T07:47:57.413Z,2857.50
2018-08-16T07:48:57.440Z,2722.50
2018-08-16T07:49:57.456Z,2750.63
2018-08-16T07:50:58.102Z,2981.25
2018-08-16T07:51:57.489Z,2840.63
2018-08-16T07:52:58.821Z,2795.63
2018-08-16T07:53:57.497Z,2683.13
2018-08-16T07:54:57.737Z,2801.25
2018-08-16T07:55:57.474Z,2857.50
2018-08-16T07:56:57.521Z,2565.00
2018-08-16T07:57:57.489Z,2452.50
2018-08-16T07:58:57.501Z,2565.00
2018-08-16T07:59:57.543Z,2621.25
2018-08-16T08:00:57.530Z,2565.00
2018-08-16T08:01:57.547Z,2458.13
2018-08-16T08:02:57.557Z,2463.75
2018-08-16T08:03:57.598Z,2469.38
2018-08-16T08:04:57.874Z,2458.13
2018-08-16T08:05:57.980Z,2531.25
2018-08-16T08:06:59.127Z,2497.50
2018-08-16T08:07:57.898Z,2486.25
2018-08-16T08:08:57.962Z,2581.88
2018-08-16T08:09:58.132Z,2638.13
2018-08-16T08:10:58.107Z,2610.00
2018-08-16T08:11:58.142Z,2632.50
2018-08-16T08:12:58.038Z,2750.63
2018-08-16T08:13:58.122Z,2784.38
2018-08-16T08:14:57.916Z,2531.25
2018-08-16T08:15:58.055Z,2536.88
2018-08-16T08:16:57.734Z,2778.75
2018-08-16T08:17:57.752Z,2756.25
2018-08-16T08:18:57.768Z,2806.88
2018-08-16T08:19:57.780Z,2733.75
2018-08-16T08:20:57.789Z,2750.63
2018-08-16T08:21:57.811Z,2711.25
2018-08-16T08:22:57.813Z,2671.88
2018-08-16T08:23:57.843Z,2902.50
2018-08-16T08:24:57.849Z,3009.38
2018-08-16T08:25:57.871Z,2857.50
2018-08-16T08:26:57.877Z,2880.00
2018-08-16T08:27:57.905Z,2700.00
2018-08-16T08:28:57.910Z,2705.63
2018-08-16T08:29:57.931Z,2823.75
2018-08-16T08:30:57.942Z,3076.88
2018-08-16T08:31:57.958Z,3206.25
2018-08-16T08:32:57.975Z,3133.13
2018-08-16T08:33:57.999Z,3251.25
2018-08-16T08:34:58.000Z,3071.25
2018-08-16T08:35:58.017Z,2750.63
2018-08-16T08:36:58.041Z,2857.50
2018-08-16T08:37:58.052Z,2998.13
2018-08-16T08:38:58.124Z,2941.88
2018-08-16T08:39:58.089Z,2970.00
2018-08-16T08:40:58.088Z,3065.63
2018-08-16T08:41:58.122Z,3037.50
2018-08-16T08:42:58.130Z,3189.38
2018-08-16T08:43:58.147Z,3138.75
2018-08-16T08:44:58.161Z,3251.25
2018-08-16T08:45:58.174Z,3245.63
2018-08-16T08:46:58.195Z,3155.63
2018-08-16T08:47:58.203Z,3256.88
2018-08-16T08:48:58.222Z,3279.38
2018-08-16T08:49:58.241Z,3211.88
2018-08-16T08:50:58.264Z,3211.88
2018-08-16T08:51:58.271Z,3138.75
2018-08-16T08:52:58.291Z,3240.00
2018-08-16T08:53:58.311Z,3346.88
2018-08-16T08:54:58.326Z,3228.75
2018-08-16T08:55:58.335Z,3296.25
2018-08-16T08:56:58.364Z,3076.88
2018-08-16T08:57:58.376Z,3037.50
2018-08-16T08:58:58.392Z,3200.63
2018-08-16T08:59:58.404Z,3453.75
2018-08-16T09:00:58.419Z,3313.13
2018-08-16T09:01:58.445Z,3138.75
2018-08-16T09:02:58.462Z,3110.63
2018-08-16T09:03:58.480Z,3234.38
2018-08-16T09:04:58.500Z,3195.00
2018-08-16T09:05:58.513Z,3403.13
2018-08-16T09:06:58.576Z,3532.50
2018-08-16T09:07:58.555Z,3684.38
2018-08-16T09:08:58.567Z,3864.38
2018-08-16T09:09:58.580Z,3886.88
2018-08-16T09:10:58.602Z,3993.75
2018-08-16T09:11:58.616Z,3813.75
2018-08-16T09:12:58.639Z,3841.88
2018-08-16T09:13:58.659Z,4179.38
2018-08-16T09:14:58.742Z,3971.25
2018-08-16T09:15:58.701Z,3909.38
2018-08-16T09:16:58.697Z,4005.00
2018-08-16T09:17:58.738Z,3948.75
2018-08-16T09:18:58.758Z,3718.13
2018-08-16T09:19:58.766Z,3701.25
2018-08-16T09:20:58.784Z,3796.88
2018-08-16T09:21:58.807Z,3673.13
2018-08-16T09:22:58.829Z,3650.63
2018-08-16T09:23:58.899Z,3763.13
2018-08-16T09:24:58.859Z,3830.63
2018-08-16T09:25:58.892Z,3763.13
2018-08-16T09:26:58.910Z,3870.00
2018-08-16T09:27:58.924Z,3375.00
2018-08-16T09:28:58.940Z,3341.25
2018-08-16T09:29:58.968Z,3386.25
2018-08-16T09:30:58.979Z,3515.63
2018-08-16T09:31:58.998Z,3532.50
2018-08-16T09:32:59.029Z,3195.00
2018-08-16T09:33:59.039Z,3166.88
2018-08-16T09:34:59.065Z,3313.13
2018-08-16T09:35:59.072Z,3313.13
2018-08-16T09:36:59.102Z,3352.50
2018-08-16T09:37:59.120Z,3290.63
2018-08-16T09:38:59.142Z,3481.88
2018-08-16T09:39:59.168Z,3560.63
2018-08-16T09:40:59.173Z,3251.25
2018-08-16T09:41:59.199Z,3296.25
2018-08-16T09:42:59.224Z,3459.38
2018-08-16T09:43:59.228Z,3448.13
2018-08-16T09:44:59.260Z,3375.00
2018-08-16T09:45:59.276Z,3318.75
2018-08-16T09:46:59.299Z,3341.25
2018-08-16T09:47:59.312Z,3408.75
2018-08-16T09:48:59.335Z,3352.50
2018-08-16T09:49:59.354Z,3510.00
2018-08-16T09:50:59.370Z,3420.00
2018-08-16T09:51:59.400Z,3346.88
2018-08-16T09:52:59.409Z,3200.63
2018-08-16T09:53:59.453Z,3211.88
2018-08-16T09:54:59.436Z,3285.00
2018-08-16T09:55:59.470Z,3425.63
2018-08-16T09:56:59.487Z,3279.38
2018-08-16T09:57:59.508Z,3178.13
2018-08-16T09:58:59.519Z,3436.88
2018-08-16T09:59:59.539Z,3425.63
2018-08-16T10:00:59.564Z,3571.88
2018-08-16T10:01:59.635Z,3403.13
2018-08-16T10:02:59.610Z,3493.13
2018-08-16T10:03:59.618Z,3363.75
2018-08-16T10:04:59.635Z,3369.38
2018-08-16T10:05:59.653Z,3408.75
2018-08-16T10:06:59.669Z,3448.13
2018-08-16T10:07:59.681Z,3346.88
2018-08-16T10:08:59.707Z,3223.13
2018-08-16T10:09:59.722Z,3330.00
2018-08-16T10:10:59.747Z,3431.25
2018-08-16T10:11:59.778Z,3403.13
2018-08-16T10:12:59.782Z,3408.75
2018-08-16T10:13:59.792Z,3363.75
2018-08-16T10:14:59.807Z,3341.25
2018-08-16T10:15:59.831Z,3307.50
2018-08-16T10:16:59.848Z,3307.50
2018-08-16T10:17:59.867Z,3363.75
2018-08-16T10:18:59.879Z,3487.50
2018-08-16T10:19:59.901Z,3391.88
2018-08-16T10:20:59.948Z,3470.63
2018-08-16T10:21:59.931Z,3335.63
2018-08-16T10:22:59.951Z,3217.50
2018-08-16T10:23:59.969Z,3234.38
2018-08-16T10:24:59.983Z,3290.63
2018-08-16T10:26:00.002Z,3273.75
2018-08-16T10:27:00.057Z,3296.25
2018-08-16T10:28:00.035Z,3228.75
2018-08-16T10:29:00.058Z,3363.75
2018-08-16T10:30:00.066Z,3037.50
2018-08-16T10:31:00.077Z,3110.63
2018-08-16T10:32:00.103Z,3296.25
2018-08-16T10:33:00.120Z,3217.50
2018-08-16T10:34:00.142Z,3121.88
2018-08-16T10:35:00.159Z,3251.25
2018-08-16T10:36:00.175Z,3375.00
2018-08-16T10:37:00.191Z,3234.38
2018-08-16T10:38:00.207Z,2986.88
2018-08-16T10:39:00.213Z,3279.38
2018-08-16T10:40:00.235Z,3442.50
2018-08-16T10:41:00.260Z,3375.00
2018-08-16T10:42:00.273Z,3223.13
2018-08-16T10:43:00.288Z,3206.25
2018-08-16T10:44:00.308Z,3358.13
2018-08-16T10:45:00.330Z,3403.13
2018-08-16T10:46:00.345Z,3183.75
2018-08-16T10:47:00.378Z,3121.88
2018-08-16T10:48:00.372Z,3498.75
2018-08-16T10:49:00.394Z,3217.50
2018-08-16T10:50:00.424Z,3189.38
2018-08-16T10:51:00.434Z,3397.50
2018-08-16T10:52:00.447Z,3459.38
2018-08-16T10:53:00.472Z,3251.25
2018-08-16T10:54:00.477Z,3290.63
2018-08-16T10:55:00.502Z,3256.88
2018-08-16T10:56:00.521Z,3195.00
2018-08-16T10:57:00.532Z,3166.88
2018-08-16T10:58:00.546Z,3504.38
2018-08-16T10:59:00.558Z,3695.63
2018-08-16T11:00:00.637Z,3262.50
2018-08-16T11:01:00.606Z,3324.38
2018-08-16T11:02:00.618Z,3211.88
2018-08-16T11:03:00.629Z,3065.63
2018-08-16T11:04:00.654Z,3200.63
2018-08-16T11:05:00.656Z,3189.38
2018-08-16T11:06:00.692Z,3138.75
2018-08-16T11:07:00.703Z,3110.63
2018-08-16T11:08:00.718Z,3138.75
2018-08-16T11:09:00.735Z,3127.50
2018-08-16T11:10:00.748Z,3189.38
2018-08-16T11:11:00.770Z,3110.63
2018-08-16T11:12:00.777Z,3251.25
2018-08-16T11:13:00.799Z,3352.50
2018-08-16T11:14:00.822Z,3453.75
2018-08-16T11:15:00.852Z,3206.25
2018-08-16T11:16:00.848Z,2947.50
2018-08-16T11:17:00.860Z,3307.50
2018-08-16T11:18:00.888Z,3358.13
2018-08-16T11:19:00.999Z,3459.38
2018-08-16T11:20:00.912Z,3425.63
2018-08-16T11:21:00.942Z,3391.88
2018-08-16T11:22:00.944Z,3318.75
2018-08-16T11:23:00.957Z,3510.00
2018-08-16T11:24:00.975Z,3487.50
2018-08-16T11:25:00.994Z,3195.00
2018-08-16T11:26:01.014Z,3498.75
2018-08-16T11:27:01.033Z,3577.50
2018-08-16T11:28:01.048Z,3622.50
2018-08-16T11:29:01.060Z,3600.00
2018-08-16T11:30:01.072Z,3723.75
2018-08-16T11:31:01.090Z,3605.63
2018-08-16T11:32:01.127Z,3594.38
2018-08-16T11:33:01.122Z,3690.00
2018-08-16T11:34:01.143Z,3763.13
2018-08-16T11:35:01.173Z,3729.38
2018-08-16T11:36:01.177Z,3453.75
2018-08-16T11:37:01.187Z,3335.63
2018-08-16T11:38:01.208Z,3729.38
2018-08-16T11:39:01.231Z,3937.50
2018-08-16T11:40:01.229Z,3701.25
2018-08-16T11:41:01.266Z,3870.00
2018-08-16T11:42:01.274Z,3915.00
2018-08-16T11:43:01.291Z,3549.38
2018-08-16T11:44:01.301Z,3566.25
2018-08-16T11:45:01.327Z,3481.88
2018-08-16T11:46:01.325Z,3802.50
2018-08-16T11:47:01.354Z,3943.13
2018-08-16T11:48:01.368Z,3943.13
2018-08-16T11:49:01.382Z,3695.63
2018-08-16T11:50:01.403Z,3791.25
2018-08-16T11:51:01.420Z,3723.75
2018-08-16T11:52:01.432Z,3639.38
2018-08-16T11:53:01.450Z,3611.25
2018-08-16T11:54:01.463Z,3611.25
2018-08-16T11:55:01.483Z,3583.13
2018-08-16T11:56:01.519Z,3695.63
2018-08-16T11:57:01.524Z,3645.00
2018-08-16T11:58:01.535Z,3290.63
2018-08-16T11:59:01.552Z,2874.38
2018-08-16T12:00:01.563Z,2778.75
2018-08-16T12:01:01.588Z,3048.75
2018-08-16T12:02:01.657Z,3268.13
2018-08-16T12:03:01.612Z,3155.63
2018-08-16T12:04:01.625Z,3099.38
2018-08-16T12:05:01.642Z,2919.38
2018-08-16T12:06:01.671Z,2953.13
2018-08-16T12:07:01.680Z,3076.88
2018-08-16T12:08:01.692Z,3465.00
2018-08-16T12:09:01.706Z,3616.88
2018-08-16T12:10:01.716Z,3628.13
2018-08-16T12:11:01.738Z,3414.38
2018-08-16T12:12:01.759Z,3594.38
2018-08-16T12:13:01.780Z,3448.13
2018-08-16T12:14:01.788Z,3346.88
2018-08-16T12:15:01.833Z,3341.25
2018-08-16T12:16:01.816Z,3442.50
2018-08-16T12:17:01.836Z,3431.25
2018-08-16T12:18:01.859Z,3397.50
2018-08-16T12:19:01.867Z,3594.38
2018-08-16T12:20:01.890Z,3588.75
2018-08-16T12:21:01.968Z,3470.63
2018-08-16T12:22:01.909Z,3667.50
2018-08-16T12:23:01.932Z,3549.38
2018-08-16T12:24:01.945Z,3735.00
2018-08-16T12:25:01.984Z,3560.63
2018-08-16T12:26:01.985Z,3363.75
2018-08-16T12:27:01.988Z,3532.50
2018-08-16T12:28:02.019Z,3285.00
2018-08-16T12:29:02.062Z,3391.88
2018-08-16T12:30:02.048Z,3476.25
2018-08-16T12:31:02.058Z,3352.50
2018-08-16T12:32:02.077Z,3082.50
2018-08-16T12:33:02.089Z,1473.75
2018-08-16T12:34:02.112Z,540.00
2018-08-16T12:35:02.207Z,500.63
2018-08-16T12:36:02.137Z,483.75
2018-08-16T12:37:02.147Z,478.13
2018-08-16T12:38:02.163Z,478.13
2018-08-16T12:39:02.161Z,472.50
2018-08-16T12:40:02.184Z,478.13
2018-08-16T12:41:02.255Z,466.88
2018-08-16T12:42:02.198Z,466.88
2018-08-16T12:43:02.210Z,461.25
2018-08-16T12:44:02.220Z,461.25
2018-08-16T12:45:02.238Z,461.25
2018-08-16T12:46:02.251Z,455.63
2018-08-16T12:47:02.254Z,455.63
2018-08-16T12:48:02.252Z,455.63
2018-08-16T12:49:02.260Z,450.00
2018-08-16T12:50:02.269Z,450.00
2018-08-16T12:51:02.292Z,450.00
2018-08-16T12:52:02.284Z,444.38
2018-08-16T12:53:02.293Z,444.38
2018-08-16T12:54:02.311Z,444.38
2018-08-16T12:55:02.315Z,444.38
2018-08-16T12:56:02.324Z,438.75
2018-08-16T12:57:02.336Z,438.75
2018-08-16T12:58:02.337Z,438.75
2018-08-16T12:59:02.332Z,438.75
2018-08-16T13:00:02.352Z,433.13
2018-08-16T13:01:02.350Z,433.13
2018-08-16T13:02:02.360Z,433.13
2018-08-16T13:03:02.367Z,433.13
2018-08-16T13:04:02.369Z,427.50
2018-08-16T13:05:02.383Z,427.50
2018-08-16T13:06:02.382Z,427.50
2018-08-16T13:07:02.385Z,427.50